createdAt,value
2022-09-01T00:05:57.281Z,47.00
2022-09-01T00:20:58.771Z,47.20
2022-09-01T00:36:00.276Z,47.30
2022-09-01T00:51:01.754Z,47.40
2022-09-01T01:06:03.232Z,47.50
2022-09-01T01:21:04.726Z,47.50
2022-09-01T01:36:06.218Z,47.40
2022-09-01T01:51:07.739Z,47.60
2022-09-01T02:06:09.229Z,47.80
2022-09-01T02:21:15.093Z,47.90
2022-09-01T02:36:17.982Z,47.90
2022-09-01T02:51:19.487Z,48.00
2022-09-01T03:06:20.976Z,48.20
2022-09-01T03:21:22.472Z,48.10
2022-09-01T03:36:24.040Z,48.20
2022-09-01T03:51:25.521Z,48.20
2022-09-01T04:06:27.006Z,48.40
2022-09-01T04:21:28.484Z,48.30
2022-09-01T04:36:30.168Z,48.40
2022-09-01T04:51:31.654Z,48.70
2022-09-01T05:06:33.133Z,49.00
2022-09-01T05:21:34.613Z,49.00
2022-09-01T05:36:36.103Z,49.00
2022-09-01T05:51:46.459Z,49.00
2022-09-01T06:07:08.515Z,49.00
2022-09-01T06:22:11.643Z,49.00
2022-09-01T06:37:13.121Z,49.00
2022-09-01T06:52:14.605Z,49.10
2022-09-01T07:42:30.322Z,49.10
2022-09-01T07:53:20.578Z,48.70
2022-09-01T08:08:26.370Z,48.60
2022-09-01T08:23:30.105Z,48.30
2022-09-01T08:38:31.594Z,48.00
2022-09-01T08:53:33.119Z,47.90
2022-09-01T09:08:34.601Z,47.60
2022-09-01T09:23:36.083Z,47.30
2022-09-01T09:38:37.565Z,47.10
2022-09-01T09:53:39.059Z,46.80
2022-09-01T10:08:40.542Z,46.40
2022-09-01T10:23:42.021Z,46.10
2022-09-01T10:38:52.705Z,45.80
2022-09-01T10:53:56.100Z,45.50
2022-09-01T11:08:57.605Z,45.20
2022-09-01T11:23:59.718Z,45.90
2022-09-01T11:39:01.218Z,42.90
2022-09-01T11:54:03.278Z,38.30
2022-09-01T12:09:04.769Z,35.30
2022-09-01T12:24:06.253Z,33.80
2022-09-01T12:39:07.753Z,32.20
2022-09-01T12:54:09.541Z,28.90
2022-09-01T13:09:11.180Z,28.30
2022-09-01T13:24:12.657Z,27.90
2022-09-01T13:39:15.448Z,28.60
2022-09-01T13:54:17.097Z,29.30
2022-09-01T14:09:18.587Z,30.10
2022-09-01T14:24:20.087Z,31.00
2022-09-01T14:39:21.570Z,31.70
2022-09-01T14:54:23.057Z,32.60
2022-09-01T15:09:24.580Z,33.20
2022-09-01T15:24:26.065Z,33.90
2022-09-01T15:39:33.236Z,34.50
2022-09-01T15:54:39.770Z,35.10
2022-09-01T16:09:41.251Z,35.60
2022-09-01T16:24:42.732Z,36.20
2022-09-01T16:39:44.221Z,36.80
2022-09-01T16:54:45.705Z,37.10
2022-09-01T17:09:47.186Z,37.40
2022-09-01T17:24:48.683Z,37.60
2022-09-01T17:39:50.167Z,38.00
2022-09-01T17:54:51.641Z,38.10
2022-09-01T18:09:53.131Z,38.30
2022-09-01T18:24:54.618Z,38.50
2022-09-01T18:39:56.119Z,38.60
2022-09-01T18:54:57.695Z,38.90
2022-09-01T19:09:59.182Z,39.20
2022-09-01T19:25:00.669Z,39.40
2022-09-01T19:40:02.206Z,39.70
2022-09-01T19:55:03.699Z,40.90
2022-09-01T20:10:05.181Z,40.10
2022-09-01T20:25:06.671Z,40.30
2022-09-01T20:40:08.206Z,40.50
2022-09-01T20:55:09.706Z,40.90
2022-09-01T21:10:12.368Z,40.90
2022-09-01T21:25:16.306Z,41.10
2022-09-01T21:40:17.831Z,41.30
2022-09-01T21:55:22.711Z,41.50
2022-09-01T22:10:24.463Z,41.90
2022-09-01T22:25:25.955Z,42.00
2022-09-01T22:40:27.500Z,42.10
2022-09-01T22:55:29.031Z,42.20
2022-09-01T23:10:30.597Z,42.30
2022-09-01T23:25:32.085Z,42.40
2022-09-01T23:40:33.604Z,42.50
2022-09-01T23:55:35.128Z,42.60
